createdAt,value
2018-02-24T00:00:15.968Z,17.37
2018-02-24T00:02:46.006Z,19.52
2018-02-24T00:05:12.323Z,19.27
2018-02-24T00:07:38.540Z,16.20
2018-02-24T00:10:04.736Z,15.75
2018-02-24T00:12:32.008Z,15.65
2018-02-24T00:14:58.269Z,15.48
2018-02-24T00:17:24.516Z,15.80
2018-02-24T00:19:50.918Z,16.87
2018-02-24T00:22:17.168Z,17.10
2018-02-24T00:24:43.396Z,15.20
2018-02-24T00:27:09.821Z,16.00
2018-02-24T00:29:36.042Z,17.80
2018-02-24T00:32:02.308Z,17.67
2018-02-24T00:34:28.648Z,17.27
2018-02-24T00:36:54.879Z,17.80
2018-02-24T00:39:21.104Z,17.70
2018-02-24T00:41:47.428Z,17.30
2018-02-24T00:44:13.628Z,18.17
2018-02-24T00:46:39.853Z,17.35
2018-02-24T00:49:06.406Z,18.40
2018-02-24T00:51:32.693Z,15.82
2018-02-24T00:53:58.913Z,17.00
2018-02-24T00:56:25.967Z,17.75
2018-02-24T00:58:52.256Z,17.60
2018-02-24T01:01:18.500Z,17.25
2018-02-24T01:03:44.758Z,16.23
2018-02-24T01:06:11.222Z,16.33
2018-02-24T01:08:37.472Z,16.62
2018-02-24T01:11:03.689Z,17.12
2018-02-24T01:13:30.222Z,17.15
2018-02-24T01:15:56.441Z,16.75
2018-02-24T01:18:22.701Z,16.62
2018-02-24T01:20:49.157Z,16.55
2018-02-24T01:23:15.462Z,15.30
2018-02-24T01:25:42.387Z,15.75
2018-02-24T01:28:08.632Z,16.12
2018-02-24T01:30:34.822Z,17.00
2018-02-24T01:33:01.064Z,17.05
2018-02-24T01:35:27.321Z,17.75
2018-02-24T01:37:53.727Z,14.02
2018-02-24T01:40:19.960Z,16.17
2018-02-24T01:42:47.013Z,14.77
2018-02-24T01:45:14.216Z,15.05
2018-02-24T01:47:40.435Z,15.40
2018-02-24T01:50:06.721Z,13.98
2018-02-24T01:52:32.966Z,13.45
2018-02-24T01:54:59.353Z,13.93
2018-02-24T01:57:25.635Z,16.45
2018-02-24T01:59:51.887Z,14.95
2018-02-24T02:02:18.596Z,15.68
2018-02-24T02:04:44.972Z,16.23
2018-02-24T02:07:11.188Z,16.73
2018-02-24T02:09:37.732Z,15.27
2018-02-24T02:12:05.179Z,14.70
2018-02-24T02:14:31.397Z,15.93
2018-02-24T02:16:57.637Z,13.62
2018-02-24T02:19:24.089Z,15.85
2018-02-24T02:21:50.360Z,16.35
2018-02-24T02:24:17.379Z,16.92
2018-02-24T02:26:43.791Z,18.45
2018-02-24T02:29:10.060Z,15.18
2018-02-24T02:31:36.324Z,16.60
2018-02-24T02:34:03.439Z,15.60
2018-02-24T02:36:30.770Z,14.60
2018-02-24T02:38:57.729Z,15.30
2018-02-24T02:41:24.005Z,15.95
2018-02-24T02:43:50.203Z,16.10
2018-02-24T02:46:16.482Z,16.25
2018-02-24T02:48:43.519Z,16.08
2018-02-24T02:51:10.480Z,15.77
2018-02-24T02:53:36.885Z,15.75
2018-02-24T02:56:03.172Z,14.23
2018-02-24T02:58:30.125Z,16.05
2018-02-24T03:00:56.376Z,14.95
2018-02-24T03:03:22.689Z,17.50
2018-02-24T03:05:48.945Z,14.73
2018-02-24T03:08:15.137Z,16.45
2018-02-24T03:10:41.511Z,17.15
2018-02-24T03:13:08.484Z,15.90
2018-02-24T03:15:35.449Z,15.82
2018-02-24T03:18:02.421Z,16.35
2018-02-24T03:20:29.953Z,16.17
2018-02-24T03:22:56.208Z,16.25
2018-02-24T03:25:22.422Z,16.25
2018-02-24T03:27:48.759Z,13.30
2018-02-24T03:30:14.946Z,17.00
2018-02-24T03:32:41.183Z,17.15
2018-02-24T03:35:09.246Z,17.65
2018-02-24T03:37:35.750Z,15.45
2018-02-24T03:40:01.957Z,14.45
2018-02-24T03:42:28.957Z,16.62
2018-02-24T03:44:55.184Z,15.50
2018-02-24T03:47:21.424Z,16.58
2018-02-24T03:49:47.689Z,15.70
2018-02-24T03:52:13.909Z,14.82
2018-02-24T03:54:40.171Z,15.00
2018-02-24T03:57:06.435Z,15.70
2018-02-24T03:59:32.652Z,14.75
2018-02-24T04:01:58.869Z,14.77
2018-02-24T04:04:25.166Z,14.55
2018-02-24T04:06:51.390Z,17.12
2018-02-24T04:09:17.763Z,16.10
2018-02-24T04:11:43.996Z,14.13
2018-02-24T04:14:10.254Z,15.55
2018-02-24T04:16:37.263Z,15.90
2018-02-24T04:19:03.473Z,15.35
2018-02-24T04:21:29.701Z,15.55
2018-02-24T04:23:56.669Z,17.30
2018-02-24T04:26:23.712Z,16.52
2018-02-24T04:28:50.707Z,18.12
2018-02-24T04:31:16.928Z,17.60
2018-02-24T04:33:43.434Z,17.25
2018-02-24T04:36:09.644Z,16.52
2018-02-24T04:38:35.870Z,17.92
2018-02-24T04:41:02.203Z,18.20
2018-02-24T04:43:28.432Z,18.42
2018-02-24T04:45:55.412Z,15.45
2018-02-24T04:48:21.872Z,18.05
2018-02-24T04:50:48.914Z,15.73
2018-02-24T04:53:15.173Z,17.50
2018-02-24T04:55:41.399Z,19.80
2018-02-24T04:58:07.791Z,16.48
2018-02-24T05:00:34.007Z,18.20
2018-02-24T05:03:00.219Z,18.75
2018-02-24T05:05:26.685Z,16.95
2018-02-24T05:07:52.891Z,17.48
2018-02-24T05:10:19.833Z,16.55
2018-02-24T05:12:46.061Z,16.60
2018-02-24T05:15:12.315Z,18.37
2018-02-24T05:17:38.540Z,17.70
2018-02-24T05:20:04.769Z,16.02
2018-02-24T05:22:31.970Z,18.02
2018-02-24T05:24:58.174Z,14.35
2018-02-24T05:27:24.412Z,18.70
2018-02-24T05:29:50.809Z,18.30
2018-02-24T05:32:17.808Z,17.95
2018-02-24T05:34:44.059Z,19.70
2018-02-24T05:37:10.317Z,17.62
2018-02-24T05:39:36.629Z,19.30
2018-02-24T05:42:02.861Z,18.45
2018-02-24T05:44:29.102Z,19.50
2018-02-24T05:46:55.368Z,17.65
2018-02-24T05:49:21.612Z,17.67
2018-02-24T05:51:47.828Z,19.65
2018-02-24T05:54:14.178Z,18.45
2018-02-24T05:56:40.389Z,18.08
2018-02-24T05:59:07.340Z,20.40
2018-02-24T06:01:34.336Z,19.05
2018-02-24T06:04:00.558Z,20.60
2018-02-24T06:06:26.758Z,16.85
2018-02-24T06:08:53.033Z,19.02
2018-02-24T06:11:20.028Z,17.25
2018-02-24T06:13:46.239Z,15.13
2018-02-24T06:16:12.474Z,17.77
2018-02-24T06:18:39.678Z,18.58
2018-02-24T06:21:05.894Z,17.50
2018-02-24T06:23:32.110Z,18.27
2018-02-24T06:25:58.644Z,18.02
2018-02-24T06:28:28.253Z,17.45
2018-02-24T06:30:54.656Z,16.45
2018-02-24T06:33:20.929Z,17.10
2018-02-24T06:35:47.231Z,16.92
2018-02-24T06:38:13.632Z,17.90
2018-02-24T06:40:43.425Z,18.75
2018-02-24T06:43:09.692Z,17.95
2018-02-24T06:45:40.174Z,16.30
2018-02-24T06:48:06.456Z,18.90
2018-02-24T06:50:32.675Z,20.27
2018-02-24T06:52:59.048Z,19.65
2018-02-24T06:55:25.228Z,18.50
2018-02-24T06:57:55.995Z,19.17
2018-02-24T07:00:23.526Z,16.67
2018-02-24T07:02:50.627Z,15.48
2018-02-24T07:05:16.851Z,17.02
2018-02-24T07:07:43.826Z,18.20
2018-02-24T07:10:10.173Z,18.73
2018-02-24T07:12:36.361Z,17.83
2018-02-24T07:15:02.648Z,18.40
2018-02-24T07:17:29.103Z,17.98
2018-02-24T07:19:55.364Z,17.20
2018-02-24T07:22:21.581Z,18.50
2018-02-24T07:24:47.994Z,16.20
2018-02-24T07:27:14.159Z,17.55
2018-02-24T07:29:40.376Z,19.55
2018-02-24T07:32:07.048Z,16.60
2018-02-24T07:34:34.022Z,12.77
2018-02-24T07:37:00.228Z,18.00
2018-02-24T07:39:28.462Z,19.12
2018-02-24T07:41:54.820Z,16.37
2018-02-24T07:44:21.056Z,18.25
2018-02-24T07:46:47.240Z,17.90
2018-02-24T07:49:14.219Z,18.67
2018-02-24T07:51:40.681Z,17.73
2018-02-24T07:54:06.893Z,18.58
2018-02-24T07:56:33.819Z,18.60
2018-02-24T07:59:00.101Z,21.27
2018-02-24T08:01:26.435Z,17.73
2018-02-24T08:03:53.356Z,19.95
2018-02-24T08:06:19.784Z,18.67
2018-02-24T08:08:45.992Z,18.85
2018-02-24T08:11:12.235Z,18.77
2018-02-24T08:13:38.462Z,19.55
2018-02-24T08:16:04.672Z,21.15
2018-02-24T08:18:30.901Z,20.70
2018-02-24T08:20:57.148Z,16.10
2018-02-24T08:23:23.431Z,15.43
2018-02-24T08:25:49.661Z,16.23
2018-02-24T08:28:16.638Z,18.20
2018-02-24T08:30:43.790Z,17.83
2018-02-24T08:33:11.534Z,18.50
2018-02-24T08:35:38.736Z,17.35
2018-02-24T08:38:05.677Z,16.90
2018-02-24T08:40:31.872Z,17.47
2018-02-24T08:42:58.217Z,16.85
2018-02-24T08:45:24.410Z,18.23
2018-02-24T08:47:51.358Z,13.07
2018-02-24T08:50:18.535Z,16.33
2018-02-24T08:52:45.612Z,17.12
2018-02-24T08:55:11.812Z,16.60
2018-02-24T08:57:38.728Z,15.98
2018-02-24T09:00:05.040Z,15.90
2018-02-24T09:02:32.016Z,16.73
2018-02-24T09:04:58.204Z,12.80
2018-02-24T09:07:24.400Z,15.63
2018-02-24T09:09:50.608Z,14.47
2018-02-24T09:12:16.779Z,14.67
2018-02-24T09:14:42.950Z,15.60
2018-02-24T09:17:09.164Z,14.47
2018-02-24T09:19:35.347Z,14.10
2018-02-24T09:22:01.546Z,15.63
2018-02-24T09:24:27.712Z,14.60
2018-02-24T09:26:53.904Z,15.27
2018-02-24T09:29:20.835Z,12.70
2018-02-24T09:31:47.139Z,13.47
2018-02-24T09:34:13.317Z,12.93
2018-02-24T09:36:39.501Z,13.27
2018-02-24T09:39:05.777Z,10.50
2018-02-24T09:41:31.947Z,17.17
2018-02-24T09:43:58.123Z,11.17
2018-02-24T09:46:24.382Z,12.10
2018-02-24T09:48:50.572Z,10.40
2018-02-24T09:51:17.481Z,9.27
2018-02-24T09:53:43.990Z,8.33
2018-02-24T09:56:10.151Z,8.33
2018-02-24T09:58:36.353Z,7.40
2018-02-24T10:01:02.694Z,7.60
2018-02-24T10:03:28.876Z,6.07
2018-02-24T10:05:55.072Z,6.80
2018-02-24T10:08:21.406Z,7.17
2018-02-24T10:10:47.635Z,6.70
2018-02-24T10:13:13.883Z,6.80
2018-02-24T10:15:40.310Z,4.53
2018-02-24T10:18:06.489Z,5.70
2018-02-24T10:20:32.663Z,5.83
2018-02-24T10:22:59.581Z,6.27
2018-02-24T10:25:25.927Z,5.90
2018-02-24T10:27:52.093Z,5.43
2018-02-24T10:30:18.273Z,5.50
2018-02-24T10:32:44.640Z,7.00
2018-02-24T10:35:10.859Z,5.63
2018-02-24T10:37:37.027Z,6.50
2018-02-24T10:40:03.592Z,6.37
2018-02-24T10:42:30.520Z,5.10
2018-02-24T10:44:56.719Z,6.20
2018-02-24T10:47:23.133Z,5.17
2018-02-24T10:49:50.091Z,5.27
2018-02-24T10:52:16.357Z,4.97
2018-02-24T10:54:42.532Z,5.40
2018-02-24T10:57:08.866Z,5.03
2018-02-24T10:59:35.115Z,5.80
2018-02-24T11:02:01.295Z,6.03
2018-02-24T11:04:27.593Z,5.63
2018-02-24T11:06:53.776Z,5.87
2018-02-24T11:09:20.034Z,6.83
2018-02-24T11:11:46.552Z,6.03
2018-02-24T11:14:12.743Z,4.80
2018-02-24T11:16:38.937Z,6.47
2018-02-24T11:19:05.352Z,6.50
2018-02-24T11:21:31.515Z,5.67
2018-02-24T11:23:57.726Z,5.80
2018-02-24T11:26:24.048Z,7.10
2018-02-24T11:28:50.224Z,5.23
2018-02-24T11:31:16.384Z,5.63
2018-02-24T11:33:42.723Z,6.30
2018-02-24T11:36:08.992Z,6.47
2018-02-24T11:38:35.944Z,6.60
2018-02-24T11:41:02.859Z,7.20
2018-02-24T11:43:29.236Z,6.90
2018-02-24T11:45:55.432Z,7.70
2018-02-24T11:48:21.609Z,7.53
2018-02-24T11:50:47.914Z,5.63
2018-02-24T11:53:14.084Z,7.30
2018-02-24T11:55:40.317Z,7.03
2018-02-24T11:58:06.608Z,7.80
2018-02-24T12:00:33.521Z,6.83
2018-02-24T12:02:59.700Z,6.90
2018-02-24T12:05:26.743Z,7.60
2018-02-24T12:07:52.900Z,6.03
2018-02-24T12:10:19.908Z,7.67
2018-02-24T12:12:46.121Z,6.87
2018-02-24T12:15:13.207Z,8.20
2018-02-24T12:17:39.400Z,9.07
2018-02-24T12:20:06.312Z,8.30
2018-02-24T12:22:32.712Z,8.17
2018-02-24T12:24:58.869Z,8.03
2018-02-24T12:27:25.061Z,8.47
2018-02-24T12:29:52.173Z,8.03
2018-02-24T12:32:19.043Z,8.50
2018-02-24T12:34:45.242Z,6.93
2018-02-24T12:37:11.416Z,8.47
2018-02-24T12:39:37.654Z,8.30
2018-02-24T12:42:03.820Z,9.00
2018-02-24T12:44:30.116Z,9.90
2018-02-24T12:46:56.510Z,7.63
2018-02-24T12:49:22.716Z,9.90
2018-02-24T12:51:48.893Z,8.50
2018-02-24T12:54:15.211Z,8.47
2018-02-24T12:56:41.388Z,9.13
2018-02-24T12:59:07.648Z,9.10
2018-02-24T13:01:34.569Z,8.80
2018-02-24T13:04:00.773Z,7.73
2018-02-24T13:06:26.920Z,8.50
2018-02-24T13:08:53.103Z,8.73
2018-02-24T13:11:19.323Z,8.33
2018-02-24T13:13:45.495Z,8.00
2018-02-24T13:16:11.701Z,9.33
2018-02-24T13:18:37.881Z,8.37
2018-02-24T13:21:04.789Z,7.83
2018-02-24T13:23:30.974Z,7.93
2018-02-24T13:25:57.356Z,8.70
2018-02-24T13:28:23.532Z,8.43
2018-02-24T13:30:49.748Z,8.47
2018-02-24T13:33:16.148Z,7.80
2018-02-24T13:35:43.088Z,8.00
2018-02-24T13:38:09.409Z,7.63
2018-02-24T13:40:35.845Z,8.60
2018-02-24T13:43:02.055Z,7.67
2018-02-24T13:45:28.212Z,7.63
2018-02-24T13:47:54.599Z,7.87
2018-02-24T13:50:20.893Z,7.70
2018-02-24T13:52:47.099Z,7.07
2018-02-24T13:55:13.472Z,7.80
2018-02-24T13:57:39.694Z,6.47
2018-02-24T14:00:06.665Z,7.80
2018-02-24T14:02:32.869Z,6.60
2018-02-24T14:04:59.109Z,7.17
2018-02-24T14:07:25.327Z,8.30
2018-02-24T14:09:51.512Z,8.23
2018-02-24T14:12:18.465Z,6.97
2018-02-24T14:14:44.649Z,7.10
2018-02-24T14:17:10.865Z,6.80
2018-02-24T14:19:37.980Z,7.23
2018-02-24T14:22:04.161Z,7.33
2018-02-24T14:24:31.081Z,7.33
2018-02-24T14:26:57.276Z,6.73
2018-02-24T14:29:23.637Z,6.97
2018-02-24T14:31:49.815Z,7.73
2018-02-24T14:34:16.005Z,6.47
2018-02-24T14:36:42.344Z,5.93
2018-02-24T14:39:08.537Z,6.07
2018-02-24T14:41:34.708Z,5.60
2018-02-24T14:44:01.877Z,6.13
2018-02-24T14:46:28.047Z,6.17
2018-02-24T14:48:54.215Z,6.60
2018-02-24T14:51:20.492Z,6.90
2018-02-24T14:53:46.664Z,7.00
2018-02-24T14:56:12.933Z,6.97
2018-02-24T14:58:39.438Z,8.20
2018-02-24T15:01:05.687Z,8.00
2018-02-24T15:03:31.848Z,9.00
2018-02-24T15:05:58.063Z,8.60
2018-02-24T15:08:24.275Z,7.37
2018-02-24T15:10:50.532Z,7.47
2018-02-24T15:13:16.716Z,8.50
2018-02-24T15:15:42.927Z,7.80
2018-02-24T15:18:09.129Z,7.93
2018-02-24T15:20:36.114Z,7.77
2018-02-24T15:23:02.361Z,7.37
2018-02-24T15:25:29.340Z,9.50
2018-02-24T15:27:55.579Z,8.47
2018-02-24T15:30:22.066Z,9.27
2018-02-24T15:32:48.368Z,9.00
2018-02-24T15:35:20.208Z,9.33
2018-02-24T15:37:46.675Z,9.63
2018-02-24T15:40:16.537Z,9.13
2018-02-24T15:42:42.789Z,8.87
2018-02-24T15:45:09.048Z,7.63
2018-02-24T15:47:35.323Z,8.60
2018-02-24T15:50:02.718Z,10.33
2018-02-24T15:52:29.937Z,9.73
2018-02-24T15:54:56.843Z,9.07
2018-02-24T15:57:23.104Z,9.07
2018-02-24T15:59:49.644Z,9.53
2018-02-24T16:02:15.851Z,9.10
2018-02-24T16:04:42.056Z,10.53
2018-02-24T16:07:08.510Z,10.30
2018-02-24T16:09:34.723Z,9.53
2018-02-24T16:12:00.925Z,9.10
2018-02-24T16:14:27.364Z,10.40
2018-02-24T16:16:53.604Z,11.30
2018-02-24T16:19:19.801Z,13.47
2018-02-24T16:21:46.205Z,11.60
2018-02-24T16:24:12.408Z,12.00
2018-02-24T16:26:43.925Z,9.50
2018-02-24T16:29:10.160Z,15.50
2018-02-24T16:31:37.171Z,9.40
2018-02-24T16:34:03.344Z,9.60
2018-02-24T16:36:29.721Z,10.57
2018-02-24T16:38:55.919Z,10.10
2018-02-24T16:41:22.159Z,13.30
2018-02-24T16:43:48.727Z,9.57
2018-02-24T16:46:15.964Z,9.43
2018-02-24T16:48:42.152Z,7.10
2018-02-24T16:51:08.852Z,9.10
2018-02-24T16:53:35.091Z,11.00
2018-02-24T16:56:01.464Z,10.30
2018-02-24T16:58:27.652Z,7.70
2018-02-24T17:00:54.824Z,9.70
2018-02-24T17:03:21.758Z,9.30
2018-02-24T17:05:47.919Z,10.90
2018-02-24T17:08:14.284Z,9.40
2018-02-24T17:10:40.444Z,9.23
2018-02-24T17:13:06.706Z,9.57
2018-02-24T17:15:33.177Z,8.50
2018-02-24T17:17:59.361Z,10.77
2018-02-24T17:20:26.654Z,9.40
2018-02-24T17:22:52.867Z,10.33
2018-02-24T17:25:25.672Z,9.20
2018-02-24T17:27:52.321Z,9.40
2018-02-24T17:30:18.565Z,9.82
2018-02-24T17:32:45.012Z,9.40
2018-02-24T17:35:11.192Z,12.60
2018-02-24T17:37:37.408Z,9.83
2018-02-24T17:40:03.800Z,8.40
2018-02-24T17:42:30.724Z,6.97
2018-02-24T17:44:56.913Z,7.63
2018-02-24T17:47:23.209Z,7.80
2018-02-24T17:49:49.411Z,7.30
2018-02-24T17:52:15.621Z,7.90
2018-02-24T17:54:42.095Z,6.73
2018-02-24T17:57:08.296Z,6.77
2018-02-24T17:59:35.245Z,6.40
2018-02-24T18:02:01.417Z,6.80
2018-02-24T18:04:27.740Z,6.53
2018-02-24T18:06:54.673Z,5.87
2018-02-24T18:09:20.924Z,6.27
2018-02-24T18:11:47.390Z,7.03
2018-02-24T18:14:14.390Z,6.43
2018-02-24T18:16:40.578Z,5.60
2018-02-24T18:19:06.868Z,5.10
2018-02-24T18:21:33.025Z,5.57
2018-02-24T18:24:00.069Z,5.03
2018-02-24T18:26:26.296Z,5.83
2018-02-24T18:28:52.685Z,5.80
2018-02-24T18:31:19.753Z,5.40
2018-02-24T18:33:45.918Z,5.23
2018-02-24T18:36:12.366Z,4.63
2018-02-24T18:38:39.363Z,3.77
2018-02-24T18:41:05.617Z,3.97
2018-02-24T18:43:31.808Z,4.10
2018-02-24T18:45:58.855Z,3.73
2018-02-24T18:48:26.295Z,3.47
2018-02-24T18:50:52.512Z,4.27
2018-02-24T18:53:18.689Z,4.07
2018-02-24T18:55:44.997Z,3.87
2018-02-24T18:58:11.226Z,4.03
2018-02-24T19:00:37.518Z,4.00
2018-02-24T19:03:03.737Z,3.70
2018-02-24T19:05:29.924Z,4.20
2018-02-24T19:07:56.212Z,4.50
2018-02-24T19:10:23.061Z,3.37
2018-02-24T19:12:50.153Z,3.97
2018-02-24T19:15:16.416Z,3.63
2018-02-24T19:17:42.848Z,3.75
2018-02-24T19:20:09.109Z,3.47
2018-02-24T19:22:36.100Z,4.30
2018-02-24T19:25:02.341Z,4.00
2018-02-24T19:27:28.636Z,3.00
2018-02-24T19:29:54.900Z,4.05
2018-02-24T19:32:21.093Z,3.53
2018-02-24T19:34:47.582Z,3.45
2018-02-24T19:37:14.552Z,3.30
2018-02-24T19:39:40.736Z,3.28
2018-02-24T19:42:07.214Z,3.15
2018-02-24T19:44:34.280Z,3.30
2018-02-24T19:47:00.453Z,2.77
2018-02-24T19:49:26.658Z,3.90
2018-02-24T19:51:53.942Z,3.50
2018-02-24T19:54:21.098Z,3.00
2018-02-24T19:56:47.359Z,3.00
2018-02-24T19:59:13.672Z,3.83
2018-02-24T20:01:41.339Z,2.93
2018-02-24T20:04:08.361Z,3.08
2018-02-24T20:06:34.573Z,3.67
2018-02-24T20:09:00.821Z,3.43
2018-02-24T20:11:27.018Z,3.60
2018-02-24T20:13:54.035Z,3.90
2018-02-24T20:16:20.988Z,3.10
2018-02-24T20:18:47.293Z,3.17
2018-02-24T20:21:14.233Z,3.97
2018-02-24T20:23:40.437Z,3.57
2018-02-24T20:26:06.753Z,2.80
2018-02-24T20:28:32.964Z,5.07
2018-02-24T20:30:59.229Z,3.67
2018-02-24T20:33:26.148Z,3.63
2018-02-24T20:35:52.530Z,3.50
2018-02-24T20:38:18.726Z,3.50
2018-02-24T20:40:44.998Z,3.15
2018-02-24T20:43:11.639Z,2.83
2018-02-24T20:45:38.573Z,3.00
2018-02-24T20:48:04.798Z,2.60
2018-02-24T20:50:31.314Z,2.70
2018-02-24T20:52:57.629Z,2.60
2018-02-24T20:55:23.835Z,2.30
2018-02-24T20:57:50.111Z,2.75
2018-02-24T21:00:17.226Z,2.60
2018-02-24T21:02:43.603Z,2.55
2018-02-24T21:05:09.841Z,2.53
2018-02-24T21:07:38.188Z,3.17
2018-02-24T21:10:04.641Z,2.30
2018-02-24T21:12:30.840Z,1.90
2018-02-24T21:14:57.024Z,3.17
2018-02-24T21:17:23.436Z,2.53
2018-02-24T21:19:49.720Z,2.50
2018-02-24T21:22:15.925Z,2.87
2018-02-24T21:24:42.435Z,3.00
2018-02-24T21:27:08.736Z,2.93
2018-02-24T21:29:35.032Z,2.80
2018-02-24T21:32:01.401Z,3.50
2018-02-24T21:34:28.546Z,3.03
2018-02-24T21:36:54.716Z,2.50
2018-02-24T21:39:20.917Z,3.20
2018-02-24T21:41:47.301Z,2.90
2018-02-24T21:44:13.478Z,5.33
2018-02-24T21:46:39.755Z,6.25
2018-02-24T21:49:06.088Z,4.83
2018-02-24T21:51:32.296Z,5.33
2018-02-24T21:53:58.531Z,4.37
2018-02-24T21:56:24.989Z,3.22
2018-02-24T21:58:51.199Z,6.73
2018-02-24T22:01:17.536Z,4.43
2018-02-24T22:03:43.795Z,4.60
2018-02-24T22:06:09.984Z,3.87
2018-02-24T22:08:36.220Z,3.60
2018-02-24T22:11:02.477Z,4.50
2018-02-24T22:13:29.473Z,7.15
2018-02-24T22:15:55.741Z,6.47
2018-02-24T22:18:22.008Z,4.22
2018-02-24T22:20:48.223Z,5.40
2018-02-24T22:23:14.576Z,4.75
2018-02-24T22:25:40.933Z,4.80
2018-02-24T22:28:08.084Z,4.13
2018-02-24T22:30:34.288Z,5.45
2018-02-24T22:33:01.220Z,5.05
2018-02-24T22:35:28.192Z,5.35
2018-02-24T22:37:54.468Z,5.37
2018-02-24T22:40:20.673Z,4.50
2018-02-24T22:42:46.862Z,4.73
2018-02-24T22:45:13.811Z,5.15
2018-02-24T22:47:46.163Z,5.15
2018-02-24T22:50:12.450Z,4.37
2018-02-24T22:52:38.730Z,4.37
2018-02-24T22:55:04.974Z,5.75
2018-02-24T22:57:31.160Z,4.22
2018-02-24T22:59:57.385Z,4.25
2018-02-24T23:02:23.640Z,4.82
2018-02-24T23:04:49.880Z,4.07
2018-02-24T23:07:16.365Z,4.43
2018-02-24T23:09:43.581Z,3.90
2018-02-24T23:12:09.788Z,5.32
2018-02-24T23:14:36.733Z,3.92
2018-02-24T23:17:03.142Z,3.92
2018-02-24T23:19:29.352Z,2.65
2018-02-24T23:21:55.640Z,4.43
2018-02-24T23:24:22.045Z,4.50
2018-02-24T23:26:48.265Z,4.00
2018-02-24T23:29:14.502Z,3.78
2018-02-24T23:31:41.458Z,4.10
2018-02-24T23:34:07.697Z,3.95
2018-02-24T23:36:34.648Z,4.28
2018-02-24T23:39:00.869Z,3.33
2018-02-24T23:41:27.175Z,3.75
2018-02-24T23:43:53.425Z,5.35
2018-02-24T23:46:19.641Z,4.10
2018-02-24T23:48:45.963Z,4.50
2018-02-24T23:51:12.241Z,3.15
2018-02-24T23:53:38.680Z,5.70
2018-02-24T23:56:05.047Z,3.90
2018-02-24T23:58:31.257Z,4.28
